createdAt,value
2023-04-22T00:02:17.274Z,101508.31
2023-04-22T00:04:46.608Z,101511.25
2023-04-22T00:07:15.306Z,101507.88
2023-04-22T00:09:42.511Z,101500.06
2023-04-22T00:12:11.847Z,101504.50
2023-04-22T00:14:38.986Z,101506.22
2023-04-22T00:17:07.247Z,101502.66
2023-04-22T00:19:34.894Z,101492.97
2023-04-22T00:22:04.692Z,101498.31
2023-04-22T00:24:31.394Z,101501.84
2023-04-22T00:26:58.197Z,101490.50
2023-04-22T00:29:28.024Z,101491.41
2023-04-22T00:31:54.857Z,101491.41
2023-04-22T00:34:21.964Z,101487.84
2023-04-22T00:36:48.770Z,101484.28
2023-04-22T00:39:15.500Z,101486.97
2023-04-22T00:41:42.884Z,101480.94
2023-04-22T00:44:11.467Z,101492.59
2023-04-22T00:46:39.589Z,101486.56
2023-04-22T00:49:07.784Z,101476.25
2023-04-22T00:51:34.830Z,101469.47
2023-04-22T00:54:02.099Z,101481.00
2023-04-22T00:56:30.607Z,101473.16
2023-04-22T00:58:57.929Z,101477.63
2023-04-22T01:01:25.157Z,101474.03
2023-04-22T01:03:53.147Z,101476.72
2023-04-22T01:06:20.529Z,101469.75
2023-04-22T01:08:47.935Z,101475.13
2023-04-22T01:11:14.761Z,101471.66
2023-04-22T01:13:41.864Z,101455.84
2023-04-22T01:16:10.028Z,101462.84
2023-04-22T01:18:37.373Z,101471.63
2023-04-22T01:21:04.443Z,101466.31
2023-04-22T01:23:31.377Z,101455.88
2023-04-22T01:25:58.223Z,101464.72
2023-04-22T01:28:25.063Z,101461.25
2023-04-22T01:30:52.468Z,101461.25
2023-04-22T01:33:19.185Z,101462.06
2023-04-22T01:35:46.376Z,101462.94
2023-04-22T01:38:13.424Z,101458.53
2023-04-22T01:40:40.329Z,101454.19
2023-04-22T01:43:09.182Z,101451.63
2023-04-22T01:45:35.961Z,101443.88
2023-04-22T01:48:02.898Z,101454.41
2023-04-22T01:50:29.636Z,101454.34
2023-04-22T01:52:57.362Z,101456.06
2023-04-22T01:55:24.065Z,101442.84
2023-04-22T01:57:51.062Z,101441.03
2023-04-22T02:00:18.129Z,101442.78
2023-04-22T02:02:44.847Z,101445.47
2023-04-22T02:05:11.691Z,101442.91
2023-04-22T02:07:38.515Z,101435.88
2023-04-22T02:10:06.106Z,101435.91
2023-04-22T02:12:32.884Z,101429.84
2023-04-22T02:14:59.639Z,101432.66
2023-04-22T02:17:27.286Z,101421.28
2023-04-22T02:19:53.968Z,101423.06
2023-04-22T02:22:22.338Z,101418.63
2023-04-22T02:24:49.549Z,101426.50
2023-04-22T02:27:16.222Z,101415.94
2023-04-22T02:29:42.893Z,101416.91
2023-04-22T02:32:09.782Z,101406.47
2023-04-22T02:34:36.631Z,101412.78
2023-04-22T02:37:03.348Z,101414.72
2023-04-22T02:39:30.113Z,101409.53
2023-04-22T02:41:56.920Z,101406.84
2023-04-22T02:44:23.582Z,101405.09
2023-04-22T02:46:50.299Z,101412.13
2023-04-22T02:49:17.052Z,101406.91
2023-04-22T02:51:43.751Z,101406.09
2023-04-22T02:54:10.577Z,101413.06
2023-04-22T02:56:37.282Z,101398.06
2023-04-22T02:59:04.256Z,101400.72
2023-04-22T03:01:31.169Z,101394.53
2023-04-22T03:03:58.322Z,101393.66
2023-04-22T03:06:25.381Z,101399.84
2023-04-22T03:08:52.067Z,101400.78
2023-04-22T03:11:18.765Z,101393.81
2023-04-22T03:13:45.514Z,101393.81
2023-04-22T03:16:12.264Z,101397.41
2023-04-22T03:18:39.006Z,101388.72
2023-04-22T03:21:06.605Z,101387.91
2023-04-22T03:23:33.722Z,101386.13
2023-04-22T03:26:00.508Z,101396.75
2023-04-22T03:28:27.229Z,101386.28
2023-04-22T03:30:53.946Z,101388.03
2023-04-22T03:33:20.804Z,101381.09
2023-04-22T03:35:51.119Z,101381.06
2023-04-22T03:38:17.850Z,101384.59
2023-04-22T03:40:44.508Z,101374.88
2023-04-22T03:43:11.331Z,101378.31
2023-04-22T03:45:38.156Z,101371.25
2023-04-22T03:48:05.147Z,101368.66
2023-04-22T03:50:31.880Z,101365.22
2023-04-22T03:52:58.567Z,101362.66
2023-04-22T03:55:25.304Z,101360.06
2023-04-22T03:57:51.967Z,101365.31
2023-04-22T04:00:18.715Z,101360.84
2023-04-22T04:02:45.790Z,101351.09
2023-04-22T04:05:14.086Z,101355.50
2023-04-22T04:07:41.116Z,101352.03
2023-04-22T04:10:08.369Z,101357.31
2023-04-22T04:12:35.122Z,101354.66
2023-04-22T04:15:01.839Z,101350.31
2023-04-22T04:17:28.925Z,101352.97
2023-04-22T04:19:55.696Z,101341.59
2023-04-22T04:22:22.682Z,101350.41
2023-04-22T04:24:49.887Z,101338.09
2023-04-22T04:27:16.687Z,101348.63
2023-04-22T04:29:43.451Z,101353.00
2023-04-22T04:32:10.611Z,101342.47
2023-04-22T04:34:40.202Z,101345.06
2023-04-22T04:37:06.879Z,101341.50
2023-04-22T04:39:33.745Z,101344.97
2023-04-22T04:42:00.568Z,101344.94
2023-04-22T04:44:27.503Z,101356.31
2023-04-22T04:46:55.023Z,101347.53
2023-04-22T04:49:22.005Z,101342.19
2023-04-22T04:51:49.269Z,101340.38
2023-04-22T04:54:16.570Z,101351.75
2023-04-22T04:56:43.578Z,101343.75
2023-04-22T04:59:10.313Z,101341.88
2023-04-22T05:01:37.019Z,101342.63
2023-04-22T05:04:03.833Z,101349.53
2023-04-22T05:06:31.574Z,101338.84
2023-04-22T05:08:58.806Z,101337.00
2023-04-22T05:11:25.695Z,101335.09
2023-04-22T05:13:52.355Z,101334.06
2023-04-22T05:16:24.218Z,101334.81
2023-04-22T05:18:50.936Z,101342.56
2023-04-22T05:21:17.621Z,101335.41
2023-04-22T05:23:44.265Z,101336.13
2023-04-22T05:26:11.002Z,101336.00
2023-04-22T05:28:37.659Z,101329.69
2023-04-22T05:31:04.379Z,101333.03
2023-04-22T05:33:31.197Z,101337.28
2023-04-22T05:35:58.302Z,101330.94
2023-04-22T05:38:25.156Z,101333.34
2023-04-22T05:40:51.841Z,101326.97
2023-04-22T05:43:18.599Z,101321.44
2023-04-22T05:45:45.309Z,101319.41
2023-04-22T05:48:12.031Z,101317.34
2023-04-22T05:50:38.748Z,101319.84
2023-04-22T05:53:05.445Z,101304.66
2023-04-22T05:55:32.177Z,101311.41
2023-04-22T05:57:58.960Z,101310.31
2023-04-22T06:00:25.700Z,101307.50
2023-04-22T06:02:52.441Z,101306.38
2023-04-22T06:05:19.339Z,101307.09
2023-04-22T06:07:46.188Z,101304.25
2023-04-22T06:10:12.864Z,101293.44
2023-04-22T06:12:39.512Z,101286.97
2023-04-22T06:15:06.794Z,101290.13
2023-04-22T06:17:33.495Z,101293.38
2023-04-22T06:20:00.178Z,101288.56
2023-04-22T06:22:26.892Z,101282.91
2023-04-22T06:24:53.539Z,101287.94
2023-04-22T06:27:20.217Z,101284.94
2023-04-22T06:29:46.880Z,101277.53
2023-04-22T06:32:13.534Z,101279.84
2023-04-22T06:34:40.316Z,101280.50
2023-04-22T06:37:07.000Z,101267.00
2023-04-22T06:39:33.650Z,101276.47
2023-04-22T06:42:01.792Z,101272.63
2023-04-22T06:44:29.170Z,101265.31
2023-04-22T06:46:57.925Z,101265.00
2023-04-22T06:49:25.070Z,101264.72
2023-04-22T06:51:51.739Z,101266.97
2023-04-22T06:54:18.433Z,101256.94
2023-04-22T06:56:45.300Z,101258.44
2023-04-22T06:59:12.024Z,101254.53
2023-04-22T07:01:38.767Z,101247.06
2023-04-22T07:04:05.512Z,101250.19
2023-04-22T07:06:32.993Z,101250.63
2023-04-22T07:09:00.016Z,101248.25
2023-04-22T07:11:27.822Z,101241.41
2023-04-22T07:13:54.537Z,101244.22
2023-04-22T07:16:21.258Z,101239.16
2023-04-22T07:18:48.039Z,101230.75
2023-04-22T07:21:15.035Z,101231.38
2023-04-22T07:23:41.688Z,101233.09
2023-04-22T07:26:08.383Z,101231.03
2023-04-22T07:28:35.102Z,101225.31
2023-04-22T07:31:02.477Z,101221.22
2023-04-22T07:33:29.297Z,101219.03
2023-04-22T07:35:55.974Z,101216.78
2023-04-22T07:38:22.843Z,101216.19
2023-04-22T07:40:49.559Z,101213.66
2023-04-22T07:43:16.465Z,101206.69
2023-04-22T07:45:43.223Z,101208.38
2023-04-22T07:48:10.042Z,101199.00
2023-04-22T07:50:38.604Z,101199.44
2023-04-22T07:53:06.084Z,101203.41
2023-04-22T07:55:33.002Z,101193.09
2023-04-22T07:58:01.233Z,101192.41
2023-04-22T08:00:28.093Z,101198.91
2023-04-22T08:02:54.845Z,101186.59
2023-04-22T08:05:21.756Z,101190.47
2023-04-22T08:07:48.904Z,101187.16
2023-04-22T08:10:15.811Z,101195.44
2023-04-22T08:12:42.647Z,101195.63
2023-04-22T08:15:09.934Z,101185.41
2023-04-22T08:17:36.857Z,101192.38
2023-04-22T08:20:06.589Z,101182.09
2023-04-22T08:22:36.872Z,101177.66
2023-04-22T08:25:03.769Z,101178.03
2023-04-22T08:27:30.917Z,101183.13
2023-04-22T08:29:57.581Z,101186.34
2023-04-22T08:32:26.552Z,101177.41
2023-04-22T08:34:57.482Z,101185.38
2023-04-22T08:37:28.184Z,101178.19
2023-04-22T08:39:54.890Z,101169.13
2023-04-22T08:42:23.028Z,101163.22
2023-04-22T08:44:50.216Z,101168.03
2023-04-22T08:47:18.632Z,101163.09
2023-04-22T08:49:46.108Z,101157.72
2023-04-22T08:52:15.452Z,101161.34
2023-04-22T08:54:42.447Z,101155.81
2023-04-22T08:57:11.199Z,101150.38
2023-04-22T08:59:39.325Z,101153.03
2023-04-22T09:02:07.819Z,101146.59
2023-04-22T09:04:34.912Z,101143.75
2023-04-22T09:07:02.144Z,101140.81
2023-04-22T09:09:32.109Z,101138.50
2023-04-22T09:11:58.791Z,101137.19
2023-04-22T09:14:26.680Z,101133.19
2023-04-22T09:16:53.487Z,101131.69
2023-04-22T09:19:24.180Z,101126.59
2023-04-22T09:21:53.672Z,101122.50
2023-04-22T09:24:21.071Z,101129.75
2023-04-22T09:26:48.734Z,101113.81
2023-04-22T09:29:16.801Z,101117.09
2023-04-22T09:31:49.041Z,101112.88
2023-04-22T09:34:15.875Z,101115.03
2023-04-22T09:36:44.044Z,101105.81
2023-04-22T09:39:11.395Z,101110.13
2023-04-22T09:41:39.939Z,101107.56
2023-04-22T09:44:14.097Z,101097.59
2023-04-22T09:46:43.973Z,101087.56
2023-04-22T09:49:11.161Z,101097.50
2023-04-22T09:51:42.037Z,101086.88
2023-04-22T09:54:10.714Z,101084.38
2023-04-22T09:56:52.185Z,101086.31
2023-04-22T09:59:28.114Z,101080.63
2023-04-22T10:02:04.256Z,101075.13
2023-04-22T10:04:31.447Z,101079.66
2023-04-22T10:06:58.423Z,101072.03
2023-04-22T10:09:25.676Z,101071.06
2023-04-22T10:11:55.933Z,101065.16
2023-04-22T10:14:23.149Z,101074.06
2023-04-22T10:16:54.566Z,101060.34
2023-04-22T10:19:23.666Z,101064.34
2023-04-22T10:21:54.865Z,101061.31
2023-04-22T10:24:21.647Z,101068.09
2023-04-22T10:26:56.947Z,101050.00
2023-04-22T10:29:26.130Z,101057.75
2023-04-22T10:32:05.752Z,101043.41
2023-04-22T10:34:32.981Z,101038.22
2023-04-22T10:37:13.144Z,101040.97
2023-04-22T10:39:42.895Z,101035.69
2023-04-22T10:42:12.243Z,101027.25
2023-04-22T10:45:05.356Z,101031.34
2023-04-22T10:47:33.021Z,101022.91
2023-04-22T10:50:21.669Z,101029.25
2023-04-22T10:52:59.459Z,101024.78
2023-04-22T10:55:27.049Z,101020.03
2023-04-22T10:57:54.517Z,101017.59
2023-04-22T11:00:41.790Z,101012.38
2023-04-22T11:03:17.615Z,101014.97
2023-04-22T11:05:45.081Z,101007.81
2023-04-22T11:08:20.908Z,100993.84
2023-04-22T11:10:50.097Z,100989.47
2023-04-22T11:13:19.761Z,100990.47
2023-04-22T11:15:48.596Z,100989.03
2023-04-22T11:18:26.667Z,100993.81
2023-04-22T11:20:54.181Z,100985.09
2023-04-22T11:23:28.752Z,100986.34
2023-04-22T11:26:01.756Z,100985.38
2023-04-22T11:28:29.246Z,100983.31
2023-04-22T11:31:07.048Z,100978.56
2023-04-22T11:33:34.863Z,100968.38
2023-04-22T11:36:02.145Z,100967.41
2023-04-22T11:38:28.985Z,100961.13
2023-04-22T11:40:58.445Z,100950.56
2023-04-22T11:43:25.628Z,100955.22
2023-04-22T11:45:52.564Z,100952.78
2023-04-22T11:48:19.604Z,100948.72
2023-04-22T11:50:48.127Z,100950.81
2023-04-22T11:53:16.182Z,100936.81
2023-04-22T11:55:44.771Z,100933.84
2023-04-22T11:58:27.355Z,100937.06
2023-04-22T12:00:56.351Z,100929.66
2023-04-22T12:03:25.672Z,100930.50
2023-04-22T12:05:54.114Z,100935.81
2023-04-22T12:08:26.463Z,100929.28
2023-04-22T12:10:56.081Z,100928.78
2023-04-22T12:13:25.017Z,100921.03
2023-04-22T12:16:15.997Z,100914.56
2023-04-22T12:18:52.869Z,100920.16
2023-04-22T12:21:21.888Z,100910.78
2023-04-22T12:23:54.756Z,100909.25
2023-04-22T12:26:26.531Z,100905.03
2023-04-22T12:28:54.865Z,100907.47
2023-04-22T12:31:21.833Z,100912.31
2023-04-22T12:33:48.919Z,100907.28
2023-04-22T12:36:16.394Z,100902.41
2023-04-22T12:38:43.114Z,100912.47
2023-04-22T12:41:09.868Z,100907.56
2023-04-22T12:43:37.021Z,100905.44
2023-04-22T12:46:04.984Z,100900.94
2023-04-22T12:48:32.230Z,100903.50
2023-04-22T12:50:59.623Z,100899.44
2023-04-22T12:53:27.962Z,100901.06
2023-04-22T12:55:55.868Z,100901.25
2023-04-22T12:58:22.765Z,100902.56
2023-04-22T13:00:49.436Z,100879.91
2023-04-22T13:03:16.533Z,100895.56
2023-04-22T13:05:45.604Z,100892.16
2023-04-22T13:08:12.334Z,100884.06
2023-04-22T13:10:39.359Z,100890.34
2023-04-22T13:15:37.702Z,100883.34
2023-04-22T13:18:04.449Z,100886.13
2023-04-22T13:20:31.138Z,100878.09
2023-04-22T13:22:58.616Z,100880.31
2023-04-22T13:25:25.364Z,100876.22
2023-04-22T13:27:52.015Z,100877.06
2023-04-22T13:30:18.863Z,100876.28
2023-04-22T13:32:46.019Z,100875.47
2023-04-22T13:35:12.820Z,100879.75
2023-04-22T13:37:39.499Z,100871.84
2023-04-22T13:40:06.878Z,100871.72
2023-04-22T13:42:34.349Z,100872.00
2023-04-22T13:45:01.073Z,100870.31
2023-04-22T13:47:27.803Z,100866.66
2023-04-22T13:49:54.458Z,100861.16
2023-04-22T13:52:21.815Z,100863.50
2023-04-22T13:54:48.579Z,100857.84
2023-04-22T13:57:15.266Z,100856.50
2023-04-22T13:59:42.364Z,100859.31
2023-04-22T14:02:09.295Z,100858.09
2023-04-22T14:04:36.215Z,100855.50
2023-04-22T14:07:04.134Z,100850.34
2023-04-22T14:09:31.270Z,100849.38
2023-04-22T14:11:58.504Z,100847.78
2023-04-22T14:14:28.339Z,100853.81
2023-04-22T14:16:55.143Z,100838.94
2023-04-22T14:19:25.188Z,100839.31
2023-04-22T14:21:52.052Z,100835.16
2023-04-22T14:24:19.647Z,100843.06
2023-04-22T14:26:46.461Z,100835.53
2023-04-22T14:29:13.594Z,100836.59
2023-04-22T14:31:40.667Z,100834.16
2023-04-22T14:34:07.434Z,100832.97
2023-04-22T14:36:34.273Z,100832.19
2023-04-22T14:39:01.208Z,100826.69
2023-04-22T14:41:28.324Z,100825.16
2023-04-22T14:43:55.284Z,100837.84
2023-04-22T14:46:22.102Z,100825.69
2023-04-22T14:48:48.937Z,100831.00
2023-04-22T14:51:15.942Z,100830.69
2023-04-22T14:53:43.908Z,100834.56
2023-04-22T14:56:12.091Z,100810.81
2023-04-22T14:58:38.897Z,100813.72
2023-04-22T15:01:07.249Z,100814.91
2023-04-22T15:03:35.977Z,100817.28
2023-04-22T15:06:03.349Z,100814.56
2023-04-22T15:08:30.171Z,100815.69
2023-04-22T15:10:57.073Z,100805.13
2023-04-22T15:13:23.737Z,100811.81
2023-04-22T15:15:50.525Z,100815.06
2023-04-22T15:18:17.509Z,100814.88
2023-04-22T15:20:44.232Z,100820.56
2023-04-22T15:23:11.003Z,100811.13
2023-04-22T15:25:37.945Z,100818.38
2023-04-22T15:28:04.685Z,100814.19
2023-04-22T15:30:31.346Z,100809.88
2023-04-22T15:32:58.078Z,100811.38
2023-04-22T15:35:24.866Z,100799.13
2023-04-22T15:37:52.704Z,100801.06
2023-04-22T15:40:19.439Z,100801.53
2023-04-22T15:42:46.170Z,100801.88
2023-04-22T15:45:12.888Z,100801.28
2023-04-22T15:47:41.458Z,100789.28
2023-04-22T15:50:09.750Z,100788.56
2023-04-22T15:52:38.000Z,100790.03
2023-04-22T15:55:08.112Z,100778.16
2023-04-22T15:57:35.653Z,100778.66
2023-04-22T16:00:11.926Z,100776.44
2023-04-22T16:02:40.400Z,100780.53
2023-04-22T16:05:07.525Z,100778.78
2023-04-22T16:07:34.287Z,100781.09
2023-04-22T16:10:01.055Z,100774.09
2023-04-22T16:12:27.859Z,100771.78
2023-04-22T16:14:54.646Z,100771.63
2023-04-22T16:17:21.483Z,100772.56
2023-04-22T16:19:48.427Z,100764.22
2023-04-22T16:22:15.081Z,100769.19
2023-04-22T16:24:44.038Z,100766.41
2023-04-22T16:27:16.587Z,100767.25
2023-04-22T16:29:43.992Z,100752.41
2023-04-22T16:32:11.474Z,100755.56
2023-04-22T16:34:38.619Z,100759.81
2023-04-22T16:37:10.431Z,100758.97
2023-04-22T16:39:41.066Z,100755.59
2023-04-22T16:42:07.991Z,100768.53
2023-04-22T16:44:40.609Z,100756.72
2023-04-22T16:47:07.348Z,100758.34
2023-04-22T16:49:34.006Z,100754.53
2023-04-22T16:52:00.986Z,100751.00
2023-04-22T16:54:28.032Z,100746.91
2023-04-22T16:56:54.736Z,100728.53
2023-04-22T16:59:21.451Z,100737.03
2023-04-22T17:01:48.194Z,100732.16
2023-04-22T17:04:15.159Z,100738.94
2023-04-22T17:06:42.920Z,100727.03
2023-04-22T17:09:09.912Z,100740.91
2023-04-22T17:11:36.742Z,100732.41
2023-04-22T17:14:03.581Z,100740.22
2023-04-22T17:16:30.471Z,100739.47
2023-04-22T17:18:57.112Z,100744.03
2023-04-22T17:21:23.888Z,100733.59
2023-04-22T17:23:50.914Z,100730.75
2023-04-22T17:26:17.716Z,100736.91
2023-04-22T17:28:44.560Z,100733.63
2023-04-22T17:31:11.313Z,100736.38
2023-04-22T17:33:37.980Z,100738.78
2023-04-22T17:36:04.924Z,100723.28
2023-04-22T17:38:31.770Z,100730.00
2023-04-22T17:40:59.167Z,100736.03
2023-04-22T17:43:26.270Z,100736.63
2023-04-22T17:45:53.009Z,100736.13
2023-04-22T17:48:19.916Z,100732.00
2023-04-22T17:50:46.601Z,100732.31
2023-04-22T17:53:13.411Z,100741.56
2023-04-22T17:55:40.193Z,100735.84
2023-04-22T17:58:06.876Z,100728.44
2023-04-22T18:00:34.575Z,100729.03
2023-04-22T18:03:01.893Z,100732.25
2023-04-22T18:05:28.792Z,100729.09
2023-04-22T18:08:02.538Z,100733.00
2023-04-22T18:10:31.597Z,100732.78
2023-04-22T18:12:58.395Z,100736.09
2023-04-22T18:15:25.105Z,100736.53
2023-04-22T18:17:52.034Z,100731.56
2023-04-22T18:20:19.846Z,100731.88
2023-04-22T18:22:49.712Z,100724.19
2023-04-22T18:25:16.568Z,100722.94
2023-04-22T18:27:43.621Z,100729.66
2023-04-22T18:30:10.815Z,100724.00
2023-04-22T18:32:38.001Z,100720.03
2023-04-22T18:35:05.197Z,100724.06
2023-04-22T18:37:34.735Z,100721.06
2023-04-22T18:40:02.336Z,100719.69
2023-04-22T18:42:29.126Z,100732.44
2023-04-22T18:44:55.974Z,100734.31
2023-04-22T18:47:22.703Z,100732.75
2023-04-22T18:49:49.419Z,100732.16
2023-04-22T18:52:17.414Z,100734.22
2023-04-22T18:54:44.282Z,100743.28
2023-04-22T18:57:11.255Z,100746.00
2023-04-22T18:59:38.040Z,100749.09
2023-04-22T19:02:06.115Z,100729.09
2023-04-22T19:04:32.935Z,100738.28
2023-04-22T19:06:59.615Z,100747.47
2023-04-22T19:09:26.298Z,100748.63
2023-04-22T19:11:53.080Z,100738.13
2023-04-22T19:14:19.876Z,100744.50
2023-04-22T19:16:46.657Z,100736.72
2023-04-22T19:19:13.333Z,100729.91
2023-04-22T19:21:40.112Z,100731.03
2023-04-22T19:24:06.985Z,100728.03
2023-04-22T19:26:34.085Z,100719.56
2023-04-22T19:29:01.106Z,100719.88
2023-04-22T19:31:28.625Z,100715.81
2023-04-22T19:33:55.840Z,100715.34
2023-04-22T19:36:22.543Z,100720.84
2023-04-22T19:38:49.231Z,100722.00
2023-04-22T19:41:16.306Z,100718.63
2023-04-22T19:43:43.094Z,100711.72
2023-04-22T19:46:09.945Z,100705.75
2023-04-22T19:48:37.058Z,100704.19
2023-04-22T19:51:05.320Z,100705.44
2023-04-22T19:53:33.109Z,100704.81
2023-04-22T19:56:00.054Z,100710.28
2023-04-22T19:58:28.568Z,100708.69
2023-04-22T20:00:56.014Z,100717.75
2023-04-22T20:03:23.627Z,100720.63
2023-04-22T20:05:50.958Z,100717.25
2023-04-22T20:08:19.814Z,100707.59
2023-04-22T20:10:49.712Z,100707.84
2023-04-22T20:13:17.483Z,100702.09
2023-04-22T20:15:44.610Z,100703.09
2023-04-22T20:18:12.134Z,100699.56
2023-04-22T20:20:40.926Z,100705.88
2023-04-22T20:23:12.803Z,100703.22
2023-04-22T20:25:44.266Z,100692.53
2023-04-22T20:28:11.266Z,100701.66
2023-04-22T20:30:38.307Z,100696.88
2023-04-22T20:33:05.519Z,100697.34
2023-04-22T20:35:32.531Z,100688.69
2023-04-22T20:38:02.776Z,100689.72
2023-04-22T20:40:29.856Z,100688.25
2023-04-22T20:42:58.860Z,100683.25
2023-04-22T20:45:27.286Z,100691.41
2023-04-22T20:47:54.462Z,100694.28
2023-04-22T20:50:21.294Z,100688.13
2023-04-22T20:52:49.172Z,100692.63
2023-04-22T20:55:17.041Z,100688.38
2023-04-22T20:57:43.967Z,100689.47
2023-04-22T21:00:11.580Z,100676.44
2023-04-22T21:02:40.132Z,100677.44
2023-04-22T21:05:07.627Z,100673.13
2023-04-22T21:07:35.437Z,100671.38
2023-04-22T21:10:02.394Z,100669.66
2023-04-22T21:12:29.326Z,100670.75
2023-04-22T21:14:56.337Z,100663.75
2023-04-22T21:17:32.885Z,100661.91
2023-04-22T21:19:59.956Z,100669.94
2023-04-22T21:22:26.979Z,100663.84
2023-04-22T21:24:53.956Z,100672.81
2023-04-22T21:27:22.064Z,100664.09
2023-04-22T21:29:49.843Z,100661.72
2023-04-22T21:32:17.497Z,100656.53
2023-04-22T21:34:45.177Z,100650.47
2023-04-22T21:37:12.295Z,100651.41
2023-04-22T21:39:40.078Z,100648.81
2023-04-22T21:42:09.973Z,100653.31
2023-04-22T21:44:37.770Z,100655.16
2023-04-22T21:47:05.302Z,100655.44
2023-04-22T21:49:32.004Z,100658.56
2023-04-22T21:51:59.203Z,100662.47
2023-04-22T21:54:25.859Z,100657.44
2023-04-22T21:56:52.689Z,100659.13
2023-04-22T21:59:19.460Z,100659.94
2023-04-22T22:01:46.445Z,100663.38
2023-04-22T22:04:15.708Z,100659.75
2023-04-22T22:06:42.593Z,100656.22
2023-04-22T22:09:09.651Z,100660.59
2023-04-22T22:11:36.337Z,100651.16
2023-04-22T22:14:03.350Z,100662.88
2023-04-22T22:16:31.060Z,100659.69
2023-04-22T22:18:58.452Z,100667.03
2023-04-22T22:21:25.229Z,100660.06
2023-04-22T22:23:52.035Z,100659.34
2023-04-22T22:26:19.239Z,100659.47
2023-04-22T22:28:45.972Z,100664.78
2023-04-22T22:31:12.692Z,100663.19
2023-04-22T22:33:39.412Z,100660.75
2023-04-22T22:36:06.350Z,100655.44
2023-04-22T22:38:33.138Z,100660.75
2023-04-22T22:40:59.879Z,100656.28
2023-04-22T22:43:27.015Z,100654.44
2023-04-22T22:45:54.006Z,100648.19
2023-04-22T22:48:21.088Z,100657.03
2023-04-22T22:50:49.024Z,100659.63
2023-04-22T22:53:16.161Z,100648.28
2023-04-22T22:55:42.807Z,100650.25
2023-04-22T22:58:09.538Z,100653.84
2023-04-22T23:00:37.043Z,100653.00
2023-04-22T23:03:04.469Z,100645.38
2023-04-22T23:05:31.945Z,100642.13
2023-04-22T23:07:58.614Z,100639.69
2023-04-22T23:10:25.495Z,100640.66
2023-04-22T23:12:52.200Z,100640.19
2023-04-22T23:15:18.851Z,100645.88
2023-04-22T23:17:45.988Z,100647.03
2023-04-22T23:20:12.904Z,100642.69
2023-04-22T23:22:40.746Z,100640.03
2023-04-22T23:25:08.663Z,100644.41
2023-04-22T23:27:36.052Z,100637.25
2023-04-22T23:30:04.666Z,100640.84
2023-04-22T23:32:33.259Z,100627.50
2023-04-22T23:35:01.787Z,100627.47
2023-04-22T23:37:29.772Z,100623.28
2023-04-22T23:39:56.736Z,100629.72
2023-04-22T23:42:23.416Z,100634.31
2023-04-22T23:44:50.097Z,100635.56
2023-04-22T23:47:17.330Z,100623.44
2023-04-22T23:49:44.043Z,100617.53
2023-04-22T23:52:13.182Z,100624.94
2023-04-22T23:54:41.432Z,100619.03
2023-04-22T23:57:08.605Z,100618.25
2023-04-22T23:59:35.791Z,100607.94
